Terminal Aerodrome Forecast
Issued by NWS

Current Version | Previous Version | Text Only | Print | Product List | Glossary On
Versions: 1 2 3 4 5 6 7 8 9 10 11 12 13 14 15 16 17
000
FTAK31 PAJN 210000 AAA
TAFAKT
TAF AMD
PAKT 210022Z 2100/2124 14020G30KT P6SM -RA SCT006 BKN015 OVC025
      WS020/16040KT
      TEMPO 2100/2104 3SM -RA SCT006 OVC010
     FM210600 14015KT 3SM -RA BR BKN006 OVC010
     FM211500 14025G35KT 3SM -RA BR SCT006 OVC010
     FM212200 14020G30KT P6SM SCT020 BKN040 OVC060=

USA.gov is the U.S. government's official web portal to all federal, state and local government web resources and services.